Time;durP1;ratioP1;P1;durP2;ratioP2;P2;SDS_P1;SDS_P2;PMS_P1;PMS_P2;Temp;Humidity;BMP_temperature;BMP_pressure;BME280_temperature;BME280_humidity;BME280_pressure;Samples;Min_cycle;Max_cycle;Signal;HPM_P1;HPM_P2
2022/04/17 00:02:01;;;;;;;0.70;0.70;;;6.40;1.00;;;;;;5030543;28;20206;-76
2022/04/17 00:04:27;;;;;;;0.80;0.80;;;6.40;1.00;;;;;;5030385;28;20176;-76
2022/04/17 00:06:53;;;;;;;0.80;0.80;;;6.30;1.00;;;;;;5030477;28;20219;-77
2022/04/17 00:09:19;;;;;;;0.70;0.70;;;6.30;1.00;;;;;;5030023;28;20532;-77
2022/04/17 00:11:45;;;;;;;0.80;0.80;;;6.20;1.00;;;;;;5025619;28;20200;-77
2022/04/17 00:14:11;;;;;;;0.80;0.80;;;6.20;1.00;;;;;;5034011;28;20620;-77
2022/04/17 00:16:37;;;;;;;0.60;0.60;;;6.20;1.00;;;;;;5034000;28;20180;-77
2022/04/17 00:19:02;;;;;;;0.80;0.80;;;6.20;1.00;;;;;;5033332;28;20183;-77
2022/04/17 00:21:28;;;;;;;0.70;0.70;;;6.20;1.00;;;;;;5033632;28;20192;-77
2022/04/17 00:23:53;;;;;;;0.80;0.80;;;6.20;1.00;;;;;;5033899;28;20266;-78
2022/04/17 00:26:19;;;;;;;0.80;0.80;;;6.20;1.00;;;;;;5033666;28;20211;-77
2022/04/17 00:28:45;;;;;;;0.80;0.80;;;6.10;1.00;;;;;;5033577;28;20223;-77
2022/04/17 00:31:10;;;;;;;0.70;0.70;;;6.10;1.00;;;;;;5033385;28;20196;-77
2022/04/17 00:33:36;;;;;;;0.70;0.70;;;6.10;1.00;;;;;;5033541;28;20632;-77
2022/04/17 00:36:02;;;;;;;0.80;0.80;;;6.00;1.00;;;;;;5033632;28;20172;-77
2022/04/17 00:38:28;;;;;;;0.80;0.80;;;5.90;1.00;;;;;;5033351;28;20183;-76
2022/04/17 00:40:54;;;;;;;0.80;0.80;;;5.90;1.00;;;;;;5033271;28;20282;-77
2022/04/17 00:43:30;;;;;;;0.80;0.80;;;5.90;1.00;;;;;;5033534;28;20180;-77
2022/04/17 00:45:57;;;;;;;0.80;0.80;;;5.90;1.00;;;;;;5033746;28;20204;-77
2022/04/17 00:48:23;;;;;;;0.80;0.80;;;6.00;1.00;;;;;;5033951;28;20180;-76
2022/04/17 00:50:57;;;;;;;0.80;0.80;;;5.80;1.00;;;;;;5024972;28;20235;-76
2022/04/17 00:53:24;;;;;;;0.73;0.73;;;5.80;1.00;;;;;;5033686;28;20176;-76
2022/04/17 00:55:51;;;;;;;0.80;0.80;;;5.80;1.00;;;;;;5033460;28;20171;-77
2022/04/17 00:58:17;;;;;;;0.80;0.80;;;5.80;1.00;;;;;;5033264;28;20187;-77
2022/04/17 01:00:43;;;;;;;0.70;0.70;;;5.60;1.00;;;;;;5032478;28;20196;-77
2022/04/17 01:03:12;;;;;;;0.80;0.80;;;5.30;1.00;;;;;;5033838;28;20767;-76
2022/04/17 01:05:43;;;;;;;0.70;0.70;;;5.30;1.00;;;;;;5033730;28;20692;-76
2022/04/17 01:08:12;;;;;;;0.80;0.80;;;5.20;1.00;;;;;;5034013;28;20294;-77
2022/04/17 01:10:38;;;;;;;0.80;0.80;;;5.10;1.00;;;;;;5032709;28;20187;-77
2022/04/17 01:13:06;;;;;;;0.70;0.70;;;5.00;1.00;;;;;;5033133;28;20226;-77
2022/04/17 01:15:32;;;;;;;0.80;0.80;;;4.90;1.00;;;;;;5033032;28;20176;-78
2022/04/17 01:17:59;;;;;;;0.80;0.80;;;4.90;1.00;;;;;;5032751;28;20266;-76
2022/04/17 01:20:25;;;;;;;0.80;0.80;;;4.90;1.00;;;;;;5031911;28;20676;-76
2022/04/17 01:26:55;;;;;;;0.87;0.87;;;4.90;1.00;;;;;;5033065;28;20456;-77
2022/04/17 01:28:21;;;;;;;0.87;0.87;;;4.80;1.00;;;;;;5032938;28;20206;-77
2022/04/17 01:30:54;;;;;;;0.80;0.80;;;4.90;1.00;;;;;;5032106;28;20692;-77
2022/04/17 01:33:20;;;;;;;0.80;0.80;;;4.90;1.00;;;;;;5032643;28;20179;-77
2022/04/17 01:35:46;;;;;;;0.80;0.80;;;4.80;1.00;;;;;;5032758;28;20274;-77
2022/04/17 01:38:13;;;;;;;0.70;0.70;;;4.80;1.00;;;;;;5032693;28;20199;-77
2022/04/17 01:40:39;;;;;;;0.83;0.83;;;4.80;1.00;;;;;;5032740;28;20325;-77
2022/04/17 01:43:08;;;;;;;0.80;0.80;;;4.80;1.00;;;;;;5033605;28;20286;-77
2022/04/17 01:45:35;;;;;;;0.73;0.73;;;4.90;1.00;;;;;;5033157;28;20211;-77
2022/04/17 01:48:01;;;;;;;0.70;0.70;;;5.00;1.00;;;;;;5033784;28;20316;-77
2022/04/17 01:50:27;;;;;;;0.70;0.70;;;5.00;1.00;;;;;;5034044;28;20196;-77
2022/04/17 01:52:53;;;;;;;0.80;0.80;;;5.00;1.00;;;;;;5034632;28;20187;-77
2022/04/17 01:55:19;;;;;;;0.70;0.70;;;5.00;1.00;;;;;;5034991;28;20187;-77
2022/04/17 01:57:44;;;;;;;0.80;0.80;;;4.90;1.00;;;;;;5035645;28;20172;-77
2022/04/17 02:00:11;;;;;;;0.70;0.70;;;4.90;1.00;;;;;;5034384;28;20560;-78
2022/04/17 02:02:36;;;;;;;0.70;0.70;;;4.70;1.00;;;;;;5033461;28;20680;-78
2022/04/17 02:05:02;;;;;;;0.70;0.70;;;4.50;1.00;;;;;;5032182;28;20223;-78
2022/04/17 02:07:28;;;;;;;0.80;0.80;;;4.40;1.00;;;;;;5014807;28;20614;-78
2022/04/17 02:09:53;;;;;;;0.80;0.80;;;4.60;1.00;;;;;;5031454;28;20681;-78
2022/04/17 02:12:19;;;;;;;0.70;0.70;;;4.60;1.00;;;;;;5032302;28;20624;-78
2022/04/17 02:14:44;;;;;;;0.80;0.80;;;4.60;1.00;;;;;;5032334;28;20271;-78
2022/04/17 02:17:10;;;;;;;0.80;0.80;;;4.70;1.00;;;;;;5031906;28;20195;-78
2022/04/17 02:19:36;;;;;;;0.80;0.80;;;4.70;1.00;;;;;;5031420;28;20176;-77
2022/04/17 02:22:01;;;;;;;0.80;0.80;;;4.80;1.00;;;;;;5031583;28;20200;-78
2022/04/17 02:24:27;;;;;;;0.70;0.70;;;4.80;1.00;;;;;;5031753;28;20178;-77
2022/04/17 02:26:52;;;;;;;0.80;0.80;;;4.80;1.00;;;;;;5032147;28;20215;-77
2022/04/17 02:29:18;;;;;;;0.80;0.80;;;4.00;1.00;;;;;;5031338;28;20184;-77
2022/04/17 02:31:43;;;;;;;0.80;0.80;;;3.80;91.00;;;;;;5031174;28;20269;-77
2022/04/17 02:34:09;;;;;;;0.80;0.80;;;3.80;99.90;;;;;;5031336;28;20186;-77
2022/04/17 02:36:35;;;;;;;0.80;0.80;;;3.70;99.90;;;;;;5031596;28;20239;-77
2022/04/17 02:39:00;;;;;;;0.90;0.90;;;3.80;99.90;;;;;;5030791;28;20254;-78
2022/04/17 02:41:26;;;;;;;0.80;0.80;;;3.80;99.90;;;;;;5031412;28;20341;-77
2022/04/17 02:43:51;;;;;;;0.70;0.70;;;4.00;1.00;;;;;;5031730;28;20168;-77
2022/04/17 02:47:42;;;;;;;0.80;0.80;;;3.90;9.70;;;;;;5031157;28;20215;-77
2022/04/17 02:49:03;;;;;;;0.80;0.80;;;3.70;99.90;;;;;;5030631;28;20172;-78
2022/04/17 02:51:28;;;;;;;0.80;0.80;;;3.90;1.00;;;;;;5031242;28;20257;-77
2022/04/17 02:53:54;;;;;;;0.73;0.73;;;4.00;1.00;;;;;;5031174;28;20187;-77
2022/04/17 02:56:19;;;;;;;0.90;0.90;;;4.20;1.00;;;;;;5031245;28;20255;-76
2022/04/17 02:58:45;;;;;;;0.83;0.83;;;4.20;1.00;;;;;;5031288;28;20263;-77
2022/04/17 03:06:46;;;;;;;0.90;0.90;;;3.60;99.90;;;;;;5031284;28;20215;-77
2022/04/17 03:09:12;;;;;;;0.90;0.90;;;3.80;98.40;;;;;;5027133;28;20172;-77
2022/04/17 03:11:37;;;;;;;0.80;0.80;;;3.90;1.00;;;;;;5022751;28;20204;-77
2022/04/17 03:14:03;;;;;;;0.90;0.90;;;4.10;1.00;;;;;;5030831;28;20218;-77
2022/04/17 03:16:28;;;;;;;0.80;0.80;;;4.10;1.00;;;;;;5022534;28;20357;-77
2022/04/17 03:18:54;;;;;;;0.90;0.90;;;4.30;1.00;;;;;;5030276;28;20207;-77
2022/04/17 03:21:20;;;;;;;0.90;0.90;;;4.40;1.00;;;;;;5022742;28;20192;-77
2022/04/17 03:23:45;;;;;;;0.80;0.80;;;4.30;1.00;;;;;;5030914;28;20187;-77
2022/04/17 03:26:11;;;;;;;0.80;0.80;;;4.40;1.00;;;;;;5025043;28;20813;-77
2022/04/17 03:31:15;;;;;;;0.80;0.80;;;4.40;1.00;;;;;;5009740;28;20589;-76
2022/04/17 03:33:41;;;;;;;0.87;0.87;;;4.40;1.00;;;;;;5011474;28;20177;-76
2022/04/17 03:36:07;;;;;;;0.80;0.80;;;4.50;1.00;;;;;;5011337;28;20188;-76
2022/04/17 03:38:32;;;;;;;0.90;0.90;;;4.50;1.00;;;;;;5011342;28;20198;-77
2022/04/17 03:40:59;;;;;;;0.70;0.70;;;4.50;1.00;;;;;;5010713;28;20366;-76
2022/04/17 03:43:25;;;;;;;0.80;0.80;;;4.50;1.00;;;;;;5011619;28;20177;-77
2022/04/17 03:45:51;;;;;;;0.80;0.80;;;4.40;1.00;;;;;;5014877;28;20269;-74
2022/04/17 03:48:18;;;;;;;0.80;0.80;;;4.40;1.00;;;;;;5015012;28;20660;-74
2022/04/17 03:50:44;;;;;;;0.87;0.87;;;4.40;1.00;;;;;;5014251;28;20589;-75
2022/04/17 03:53:10;;;;;;;0.80;0.80;;;4.40;1.00;;;;;;5014687;28;20177;-75
2022/04/17 03:55:36;;;;;;;0.80;0.80;;;4.40;1.00;;;;;;5015172;28;20652;-74
2022/04/17 03:58:02;;;;;;;0.90;0.90;;;4.40;1.00;;;;;;5014733;28;20191;-74
2022/04/17 04:00:28;;;;;;;0.80;0.80;;;4.40;1.00;;;;;;5014199;28;20243;-74
2022/04/17 04:02:53;;;;;;;0.87;0.87;;;4.30;1.00;;;;;;5014755;28;20181;-74
2022/04/17 04:05:19;;;;;;;0.80;0.80;;;4.30;1.00;;;;;;5014590;28;20611;-74
2022/04/17 04:07:45;;;;;;;0.90;0.90;;;4.30;1.00;;;;;;5014645;28;20545;-75
2022/04/17 04:10:11;;;;;;;0.97;0.97;;;4.30;1.00;;;;;;5013937;28;20279;-77
2022/04/17 04:12:38;;;;;;;0.90;0.90;;;4.20;1.00;;;;;;5014592;28;20207;-74
2022/04/17 04:15:04;;;;;;;0.87;0.87;;;4.20;1.00;;;;;;5014409;28;20177;-74
2022/04/17 04:17:30;;;;;;;0.80;0.80;;;4.20;1.00;;;;;;5014612;28;20184;-74
2022/04/17 04:19:55;;;;;;;0.90;0.90;;;4.20;1.00;;;;;;5013991;28;20176;-74
2022/04/17 04:22:21;;;;;;;0.90;0.90;;;4.20;1.00;;;;;;5014554;28;20295;-74
2022/04/17 04:24:46;;;;;;;0.80;0.80;;;4.20;1.00;;;;;;5014370;28;20168;-74
2022/04/17 04:29:56;;;;;;;0.80;0.80;;;4.20;1.00;;;;;;4996400;28;20204;-73
2022/04/17 04:32:22;;;;;;;0.90;0.90;;;4.20;1.00;;;;;;5014248;28;20176;-75
2022/04/17 04:34:48;;;;;;;0.70;0.70;;;4.20;1.00;;;;;;5008350;28;20177;-74
2022/04/17 04:37:13;;;;;;;0.80;0.80;;;4.20;1.00;;;;;;4994255;28;20177;-74
2022/04/17 04:39:39;;;;;;;0.70;0.70;;;4.10;1.00;;;;;;4994054;28;20626;-74
2022/04/17 04:42:05;;;;;;;0.80;0.80;;;4.20;1.00;;;;;;5007450;28;20342;-73
2022/04/17 04:44:30;;;;;;;0.80;0.80;;;4.10;1.00;;;;;;5006614;28;20172;-74
2022/04/17 04:46:56;;;;;;;0.70;0.70;;;4.10;1.00;;;;;;5013960;28;20268;-73
2022/04/17 04:49:30;;;;;;;0.80;0.80;;;4.10;1.00;;;;;;5013405;28;20177;-74
2022/04/17 04:52:03;;;;;;;0.80;0.80;;;4.10;1.00;;;;;;5013320;28;20200;-75
2022/04/17 04:54:32;;;;;;;0.80;0.80;;;4.20;1.00;;;;;;5012261;28;20177;-74
2022/04/17 04:56:58;;;;;;;0.70;0.70;;;4.30;1.00;;;;;;4996001;28;20697;-74
2022/04/17 04:59:24;;;;;;;0.80;0.80;;;4.40;1.00;;;;;;5013034;28;20276;-75
2022/04/17 05:01:51;;;;;;;0.77;0.77;;;4.50;1.00;;;;;;5013621;28;20192;-75
2022/04/17 05:04:17;;;;;;;0.83;0.83;;;4.50;1.00;;;;;;5013668;28;20191;-74
2022/04/17 05:06:44;;;;;;;0.80;0.80;;;4.60;1.00;;;;;;5013597;28;20577;-74
2022/04/17 05:09:09;;;;;;;0.90;0.90;;;4.70;1.00;;;;;;5012778;28;20257;-74
2022/04/17 05:11:37;;;;;;;0.80;0.80;;;4.90;1.00;;;;;;5012297;28;20209;-75
2022/04/17 05:14:04;;;;;;;0.80;0.80;;;5.00;1.00;;;;;;5013707;28;20653;-75
2022/04/17 05:16:29;;;;;;;0.80;0.80;;;5.10;1.00;;;;;;5013666;28;20212;-74
2022/04/17 05:19:19;;;;;;;0.80;0.80;;;5.20;1.00;;;;;;5012923;28;20555;-75
2022/04/17 05:21:40;;;;;;;0.70;0.70;;;5.30;1.00;;;;;;5013192;28;20192;-74
2022/04/17 05:24:06;;;;;;;0.80;0.80;;;5.40;1.00;;;;;;5013689;28;20187;-74
2022/04/17 05:26:31;;;;;;;0.70;0.70;;;5.60;1.00;;;;;;5013251;28;20227;-74
2022/04/17 05:28:57;;;;;;;0.90;0.90;;;5.70;1.00;;;;;;5012849;28;20179;-74
2022/04/17 05:31:23;;;;;;;0.70;0.70;;;5.80;1.00;;;;;;5013205;28;20557;-75
2022/04/17 05:33:48;;;;;;;0.80;0.80;;;5.80;1.00;;;;;;5013121;28;20172;-74
2022/04/17 05:36:14;;;;;;;0.70;0.70;;;5.90;1.00;;;;;;5013284;28;20697;-74
2022/04/17 05:38:39;;;;;;;0.70;0.70;;;6.00;1.00;;;;;;5013059;28;20164;-75
2022/04/17 05:41:08;;;;;;;0.70;0.70;;;6.10;1.00;;;;;;5012585;28;20207;-74
2022/04/17 05:43:36;;;;;;;0.70;0.70;;;6.10;1.00;;;;;;5012691;28;20642;-73
2022/04/17 05:46:02;;;;;;;0.70;0.70;;;6.30;1.00;;;;;;5012922;28;20207;-74
2022/04/17 05:48:28;;;;;;;0.70;0.70;;;6.20;1.00;;;;;;5012878;28;20177;-73
2022/04/17 05:50:53;;;;;;;0.60;0.60;;;6.30;1.00;;;;;;5012422;28;20203;-73
2022/04/17 05:53:19;;;;;;;0.70;0.70;;;6.50;1.00;;;;;;5012790;28;20169;-73
2022/04/17 05:55:44;;;;;;;0.70;0.70;;;6.50;1.00;;;;;;5012882;28;20288;-73
2022/04/17 05:58:10;;;;;;;0.80;0.80;;;6.50;1.00;;;;;;5012942;28;20687;-74
2022/04/17 06:00:35;;;;;;;0.60;0.60;;;6.50;1.00;;;;;;5012024;28;20275;-73
2022/04/17 06:03:01;;;;;;;0.70;0.70;;;6.60;1.00;;;;;;5012768;28;20204;-72
2022/04/17 06:05:26;;;;;;;0.70;0.70;;;6.70;1.00;;;;;;5012497;28;20193;-74
2022/04/17 06:07:52;;;;;;;0.60;0.60;;;6.80;1.00;;;;;;5012557;28;20629;-73
2022/04/17 06:10:17;;;;;;;0.60;0.60;;;6.90;1.00;;;;;;5012098;28;20196;-74
2022/04/17 06:12:43;;;;;;;0.70;0.70;;;7.00;1.00;;;;;;5012599;28;20219;-73
2022/04/17 06:15:10;;;;;;;0.70;0.70;;;6.90;1.00;;;;;;5012276;28;20310;-73
2022/04/17 06:17:37;;;;;;;0.70;0.70;;;6.80;1.00;;;;;;5012194;28;20192;-74
2022/04/17 06:20:06;;;;;;;0.73;0.73;;;6.70;1.00;;;;;;5011777;28;20259;-76
2022/04/17 06:22:33;;;;;;;0.60;0.60;;;7.00;1.00;;;;;;4992718;28;20197;-75
2022/04/17 06:24:59;;;;;;;0.70;0.70;;;7.20;1.00;;;;;;5011579;28;20538;-70
2022/04/17 06:27:25;;;;;;;0.60;0.60;;;7.20;1.00;;;;;;5010595;28;20176;-70
2022/04/17 06:29:50;;;;;;;0.60;0.60;;;7.80;1.00;;;;;;5007860;28;20759;-71
2022/04/17 06:32:16;;;;;;;0.70;0.70;;;7.60;1.00;;;;;;5011353;28;20187;-71
2022/04/17 06:34:41;;;;;;;0.70;0.70;;;7.30;1.00;;;;;;5006420;28;20211;-71
2022/04/17 06:37:07;;;;;;;0.60;0.60;;;7.40;1.00;;;;;;5010312;28;20183;-70
2022/04/17 06:39:32;;;;;;;0.70;0.70;;;7.50;1.00;;;;;;5001650;28;20542;-70
2022/04/17 06:41:58;;;;;;;0.70;0.70;;;7.50;1.00;;;;;;5000782;28;20245;-70
2022/04/17 06:44:23;;;;;;;0.80;0.80;;;7.60;1.00;;;;;;5001732;28;20640;-72
2022/04/17 06:46:49;;;;;;;0.67;0.67;;;7.70;1.00;;;;;;5010151;28;20365;-71
2022/04/17 06:49:14;;;;;;;0.60;0.60;;;7.50;1.00;;;;;;5007316;28;20227;-70
2022/04/17 06:51:40;;;;;;;0.60;0.60;;;7.60;1.00;;;;;;5006623;28;20196;-69
2022/04/17 06:54:06;;;;;;;0.60;0.60;;;8.00;1.00;;;;;;5001918;28;20200;-71
2022/04/17 06:56:31;;;;;;;0.60;0.60;;;8.40;1.00;;;;;;5008592;28;20223;-76
2022/04/17 06:58:57;;;;;;;0.60;0.60;;;8.40;1.00;;;;;;5011171;28;20173;-73
2022/04/17 07:01:23;;;;;;;0.70;0.70;;;8.00;1.00;;;;;;5010158;28;20208;-75
2022/04/17 07:03:48;;;;;;;0.70;0.70;;;8.10;1.00;;;;;;5010688;28;20176;-75
2022/04/17 07:06:14;;;;;;;0.60;0.60;;;8.00;1.00;;;;;;4992666;28;20208;-75
2022/04/17 07:08:39;;;;;;;0.60;0.60;;;8.20;1.00;;;;;;5009912;28;20180;-75
2022/04/17 07:11:05;;;;;;;0.60;0.60;;;8.50;1.00;;;;;;5009299;28;20549;-75
2022/04/17 07:13:31;;;;;;;0.60;0.60;;;8.50;1.00;;;;;;5009713;28;20323;-74
2022/04/17 07:15:57;;;;;;;0.50;0.50;;;8.70;1.00;;;;;;5008756;28;20254;-74
2022/04/17 07:18:22;;;;;;;0.60;0.60;;;10.10;1.00;;;;;;5011614;28;20673;-75
2022/04/17 07:20:48;;;;;;;0.50;0.50;;;11.40;1.00;;;;;;5009767;28;20242;-76
2022/04/17 07:23:14;;;;;;;0.50;0.50;;;11.80;1.00;;;;;;5019656;28;20203;-76
2022/04/17 07:25:41;;;;;;;0.53;0.53;;;11.90;1.00;;;;;;5017132;28;20378;-72
2022/04/17 07:28:14;;;;;;;0.50;0.50;;;12.00;1.00;;;;;;5013097;28;20649;-73
2022/04/17 07:30:40;;;;;;;0.60;0.60;;;11.80;1.00;;;;;;5014795;28;20600;-74
2022/04/17 07:33:05;;;;;;;0.50;0.50;;;12.40;1.00;;;;;;5016636;28;20172;-74
2022/04/17 07:35:31;;;;;;;0.40;0.40;;;12.10;1.00;;;;;;5015797;28;20185;-74
2022/04/17 07:38:01;;;;;;;0.50;0.50;;;12.20;1.00;;;;;;5016243;28;20219;-75
2022/04/17 07:40:31;;;;;;;0.50;0.50;;;12.00;1.00;;;;;;5019188;28;20200;-73
2022/04/17 07:42:59;;;;;;;0.50;0.50;;;12.80;1.00;;;;;;5031272;28;20263;-74
2022/04/17 07:45:26;;;;;;;0.60;0.60;;;12.30;1.00;;;;;;5017228;28;20199;-75
2022/04/17 07:47:52;;;;;;;0.40;0.40;;;12.60;1.00;;;;;;5009750;28;20525;-75
2022/04/17 07:50:23;;;;;;;0.40;0.40;;;12.90;1.00;;;;;;5011851;28;20200;-78
2022/04/17 07:52:49;;;;;;;0.40;0.40;;;13.00;1.00;;;;;;5019341;28;20374;-75
2022/04/17 07:55:16;;;;;;;0.47;0.47;;;12.60;1.00;;;;;;5013886;28;20191;-74
2022/04/17 08:00:31;;;;;;;0.43;0.43;;;12.70;1.00;;;;;;5010053;28;20212;-73
2022/04/17 08:05:44;;;;;;;0.50;0.50;;;12.40;1.00;;;;;;5020679;28;20210;-74
2022/04/17 08:08:10;;;;;;;0.40;0.40;;;12.60;1.00;;;;;;5015444;28;20255;-74
2022/04/17 08:10:37;;;;;;;0.40;0.40;;;12.60;1.00;;;;;;5018550;28;20350;-73
2022/04/17 08:13:03;;;;;;;0.30;0.30;;;13.40;1.00;;;;;;5030683;28;20184;-73
2022/04/17 08:15:29;;;;;;;0.40;0.40;;;13.30;1.00;;;;;;5018879;28;20187;-73
2022/04/17 08:17:54;;;;;;;0.50;0.50;;;13.20;1.00;;;;;;5015170;28;20184;-73
2022/04/17 08:20:20;;;;;;;0.40;0.40;;;13.30;1.00;;;;;;5025540;28;20207;-74
2022/04/17 08:22:46;;;;;;;0.40;0.40;;;13.50;1.00;;;;;;5018426;28;20238;-74
2022/04/17 08:25:12;;;;;;;0.40;0.40;;;13.50;1.00;;;;;;5016369;28;20219;-73
2022/04/17 08:27:48;;;;;;;0.30;0.30;;;14.30;1.00;;;;;;5019806;28;20176;-74
2022/04/17 08:30:19;;;;;;;0.40;0.40;;;13.40;1.00;;;;;;5020614;28;20223;-73
2022/04/17 08:32:44;;;;;;;0.43;0.43;;;12.70;1.00;;;;;;5029596;28;20183;-72
2022/04/17 08:35:10;;;;;;;0.30;0.30;;;12.80;1.00;;;;;;5017343;28;20181;-74
2022/04/17 08:37:35;;;;;;;0.40;0.40;;;13.10;1.00;;;;;;5028133;28;20259;-74
2022/04/17 08:40:01;;;;;;;0.30;0.30;;;13.00;1.00;;;;;;5022848;28;20190;-73
2022/04/17 08:42:30;;;;;;;0.30;0.30;;;13.60;1.00;;;;;;5020995;28;20183;-74
2022/04/17 08:44:56;;;;;;;0.40;0.40;;;13.70;1.00;;;;;;5030144;28;20683;-73
2022/04/17 08:47:21;;;;;;;0.40;0.40;;;13.50;1.00;;;;;;5017814;28;20194;-73
2022/04/17 08:49:47;;;;;;;0.40;0.40;;;13.50;1.00;;;;;;5025602;28;20230;-74
2022/04/17 08:52:15;;;;;;;0.47;0.47;;;13.70;1.00;;;;;;5024656;28;20176;-74
2022/04/17 08:54:43;;;;;;;0.30;0.30;;;13.40;1.00;;;;;;5018587;28;20657;-73
2022/04/17 08:57:09;;;;;;;0.40;0.40;;;13.00;1.00;;;;;;5030021;28;20597;-73
2022/04/17 08:59:34;;;;;;;0.40;0.40;;;12.70;1.00;;;;;;5013059;28;20697;-73
2022/04/17 09:02:08;;;;;;;0.40;0.40;;;12.70;1.00;;;;;;5018994;28;20305;-74
2022/04/17 09:04:33;;;;;;;0.40;0.40;;;13.00;1.00;;;;;;5013994;28;20195;-74
2022/04/17 09:07:00;;;;;;;0.40;0.40;;;13.00;1.00;;;;;;5034139;28;20601;-75
2022/04/17 09:09:26;;;;;;;0.40;0.40;;;13.10;1.00;;;;;;5013643;28;20339;-74
2022/04/17 09:11:57;;;;;;;0.40;0.40;;;13.50;1.00;;;;;;5011772;28;20220;-73
2022/04/17 09:14:23;;;;;;;0.40;0.40;;;13.10;1.00;;;;;;5012199;28;20404;-74
2022/04/17 09:16:51;;;;;;;0.40;0.40;;;13.10;1.00;;;;;;5013072;28;20176;-74
2022/04/17 09:19:18;;;;;;;0.40;0.40;;;13.50;1.00;;;;;;5012810;28;20179;-73
2022/04/17 09:21:53;;;;;;;0.40;0.40;;;14.00;1.00;;;;;;5013415;28;20279;-74
2022/04/17 09:24:23;;;;;;;0.30;0.30;;;14.50;1.00;;;;;;5013530;28;20214;-74
2022/04/17 09:26:54;;;;;;;0.40;0.40;;;14.30;1.00;;;;;;5013300;28;20363;-73
2022/04/17 09:29:24;;;;;;;0.40;0.40;;;13.80;1.00;;;;;;5013100;28;20227;-74
2022/04/17 09:32:08;;;;;;;0.40;0.40;;;13.70;1.00;;;;;;5013072;28;20207;-75
2022/04/17 09:34:55;;;;;;;0.40;0.40;;;14.20;1.00;;;;;;5013397;28;20177;-74
2022/04/17 09:37:25;;;;;;;0.40;0.40;;;14.30;1.00;;;;;;5013132;28;20184;-75
2022/04/17 09:39:54;;;;;;;0.40;0.40;;;13.60;1.00;;;;;;5012503;28;20187;-75
2022/04/17 09:42:22;;;;;;;0.30;0.30;;;14.30;1.00;;;;;;5013244;28;20259;-75
2022/04/17 09:44:50;;;;;;;0.37;0.37;;;13.90;1.00;;;;;;5012916;28;20260;-75
2022/04/17 09:47:23;;;;;;;0.40;0.40;;;14.30;1.00;;;;;;5012890;28;20220;-76
2022/04/17 09:50:03;;;;;;;0.40;0.40;;;14.90;1.00;;;;;;5012370;28;20176;-75
2022/04/17 09:52:44;;;;;;;0.40;0.40;;;15.30;1.00;;;;;;5012264;28;20180;-75
2022/04/17 09:55:10;;;;;;;0.40;0.40;;;15.50;1.00;;;;;;5012770;28;20264;-75
2022/04/17 09:57:45;;;;;;;0.30;0.30;;;14.40;1.00;;;;;;5012614;28;20564;-75
2022/04/17 10:00:15;;;;;;;0.40;0.40;;;14.60;1.00;;;;;;5012087;28;20204;-75
2022/04/17 10:02:46;;;;;;;0.40;0.40;;;14.50;1.00;;;;;;5012604;28;20192;-76
2022/04/17 10:05:14;;;;;;;0.40;0.40;;;14.50;1.00;;;;;;5012625;28;20239;-76
2022/04/17 10:07:41;;;;;;;0.40;0.40;;;14.20;1.00;;;;;;5012497;28;20184;-76
2022/04/17 10:10:08;;;;;;;0.40;0.40;;;14.60;1.00;;;;;;5012182;28;20196;-72
2022/04/17 10:12:37;;;;;;;0.40;0.40;;;14.30;1.00;;;;;;5012181;28;20192;-75
2022/04/17 10:15:07;;;;;;;0.33;0.33;;;13.90;1.00;;;;;;5012490;28;20183;-75
2022/04/17 10:17:34;;;;;;;0.30;0.30;;;14.40;1.00;;;;;;5012251;28;20175;-75
2022/04/17 10:20:08;;;;;;;0.40;0.40;;;14.20;1.00;;;;;;5011919;28;20231;-75
2022/04/17 10:22:35;;;;;;;0.40;0.40;;;15.30;1.00;;;;;;5012684;28;20517;-76
2022/04/17 10:25:06;;;;;;;0.40;0.40;;;15.20;1.00;;;;;;5012271;28;20184;-74
2022/04/17 10:27:45;;;;;;;0.30;0.30;;;14.70;1.00;;;;;;5012306;28;20184;-75
2022/04/17 10:30:20;;;;;;;0.40;0.40;;;15.10;1.00;;;;;;5011351;28;20693;-75
2022/04/17 10:32:52;;;;;;;0.43;0.43;;;15.00;1.00;;;;;;5012030;28;20659;-76
2022/04/17 10:35:30;;;;;;;0.40;0.40;;;15.40;1.00;;;;;;5012317;28;20172;-75
2022/04/17 10:38:26;;;;;;;0.37;0.37;;;14.90;1.00;;;;;;5012384;28;20173;-76
2022/04/17 10:41:07;;;;;;;0.40;0.40;;;15.20;1.00;;;;;;5011517;28;20361;-75
2022/04/17 10:43:37;;;;;;;0.30;0.30;;;15.40;1.00;;;;;;5011917;28;20178;-75
2022/04/17 10:46:11;;;;;;;0.40;0.40;;;15.20;1.00;;;;;;5011908;28;20484;-76
2022/04/17 10:49:05;;;;;;;0.50;0.50;;;15.90;1.00;;;;;;5011785;28;20169;-76
2022/04/17 10:51:34;;;;;;;0.40;0.40;;;16.00;1.00;;;;;;5012109;28;20203;-76
2022/04/17 10:54:04;;;;;;;0.40;0.40;;;15.90;1.00;;;;;;5011151;28;20585;-76
2022/04/17 10:56:55;;;;;;;0.40;0.40;;;15.20;1.00;;;;;;5011726;28;20271;-75
2022/04/17 10:59:22;;;;;;;0.40;0.40;;;15.50;1.00;;;;;;5002021;28;20192;-75
2022/04/17 11:01:59;;;;;;;0.50;0.50;;;16.00;1.00;;;;;;5011602;28;20205;-76
2022/04/17 11:04:29;;;;;;;0.40;0.40;;;15.20;1.00;;;;;;5012055;28;20624;-76
2022/04/17 11:07:14;;;;;;;0.40;0.40;;;15.30;1.00;;;;;;5011521;28;20271;-77
2022/04/17 11:09:46;;;;;;;0.40;0.40;;;15.60;1.00;;;;;;5010815;28;20169;-75
2022/04/17 11:12:17;;;;;;;0.50;0.50;;;15.70;1.00;;;;;;5011725;28;20204;-76
2022/04/17 11:14:52;;;;;;;0.50;0.50;;;15.60;1.00;;;;;;5011607;28;20168;-76
2022/04/17 11:17:23;;;;;;;0.40;0.40;;;15.30;1.00;;;;;;5011711;28;20279;-75
2022/04/17 11:19:51;;;;;;;0.40;0.40;;;16.40;1.00;;;;;;5010986;28;20243;-77
2022/04/17 11:22:17;;;;;;;0.40;0.40;;;16.40;1.00;;;;;;5011588;28;20298;-76
2022/04/17 11:24:55;;;;;;;0.50;0.50;;;16.00;1.00;;;;;;5011583;28;20169;-75
2022/04/17 11:27:42;;;;;;;0.40;0.40;;;16.00;1.00;;;;;;5011406;28;20211;-77
2022/04/17 11:30:30;;;;;;;0.50;0.50;;;16.60;1.00;;;;;;5010804;28;20224;-76
2022/04/17 11:32:56;;;;;;;0.40;0.40;;;17.30;1.00;;;;;;5011400;28;20183;-76
2022/04/17 11:35:23;;;;;;;0.40;0.40;;;17.30;1.00;;;;;;5011214;28;20185;-76
2022/04/17 11:38:03;;;;;;;0.40;0.40;;;17.30;1.00;;;;;;5011397;28;20538;-76
2022/04/17 11:40:34;;;;;;;0.40;0.40;;;16.60;1.00;;;;;;5010907;28;20200;-75
2022/04/17 11:43:11;;;;;;;0.50;0.50;;;16.50;1.00;;;;;;5011139;28;20176;-77
2022/04/17 11:45:37;;;;;;;0.40;0.40;;;16.60;1.00;;;;;;5012214;28;20208;-76
2022/04/17 11:48:05;;;;;;;0.30;0.30;;;17.00;1.00;;;;;;5011989;28;20302;-76
2022/04/17 11:50:30;;;;;;;0.33;0.33;;;17.90;1.00;;;;;;5010750;28;20189;-76
2022/04/17 11:52:59;;;;;;;0.40;0.40;;;17.70;1.00;;;;;;5011971;28;20173;-76
2022/04/17 11:55:30;;;;;;;0.30;0.30;;;18.50;1.00;;;;;;5011170;28;20177;-76
2022/04/17 11:57:56;;;;;;;0.43;0.43;;;17.20;1.00;;;;;;5011651;28;20173;-76
2022/04/17 12:00:22;;;;;;;0.50;0.50;;;17.20;1.00;;;;;;5010828;28;20200;-76
2022/04/17 12:02:57;;;;;;;0.40;0.40;;;17.60;1.00;;;;;;5011015;28;20590;-76
2022/04/17 12:05:24;;;;;;;0.33;0.33;;;18.20;1.00;;;;;;5013149;28;20204;-76
2022/04/17 12:08:02;;;;;;;0.30;0.30;;;18.40;1.00;;;;;;5014595;28;20172;-76
2022/04/17 12:10:28;;;;;;;0.40;0.40;;;17.70;1.00;;;;;;5014263;28;20851;-77
2022/04/17 12:12:54;;;;;;;0.30;0.30;;;17.60;1.00;;;;;;5014862;28;20223;-76
2022/04/17 12:15:21;;;;;;;0.40;0.40;;;17.80;1.00;;;;;;5014627;28;20177;-76
2022/04/17 12:17:57;;;;;;;0.40;0.40;;;16.80;1.00;;;;;;5014485;28;20198;-77
2022/04/17 12:20:24;;;;;;;0.30;0.30;;;16.90;1.00;;;;;;5013915;28;20208;-76
2022/04/17 12:22:50;;;;;;;0.33;0.33;;;16.80;1.00;;;;;;5014694;28;20256;-76
2022/04/17 12:25:19;;;;;;;0.40;0.40;;;17.10;1.00;;;;;;5014490;28;20263;-75
2022/04/17 12:27:48;;;;;;;0.40;0.40;;;16.70;1.00;;;;;;5014709;28;20180;-76
2022/04/17 12:30:19;;;;;;;0.40;0.40;;;16.80;1.00;;;;;;5013785;28;20208;-76
2022/04/17 12:32:45;;;;;;;0.40;0.40;;;17.20;1.00;;;;;;5014366;28;20181;-77
2022/04/17 12:35:13;;;;;;;0.37;0.37;;;17.50;1.00;;;;;;5014168;28;20629;-75
2022/04/17 12:37:39;;;;;;;0.40;0.40;;;17.50;1.00;;;;;;5014771;28;20272;-76
2022/04/17 12:40:12;;;;;;;0.30;0.30;;;17.40;1.00;;;;;;5013843;28;20604;-75
2022/04/17 12:42:38;;;;;;;0.40;0.40;;;17.00;1.00;;;;;;5013996;28;20322;-75
2022/04/17 12:45:05;;;;;;;0.40;0.40;;;16.70;1.00;;;;;;5013997;28;20177;-75
2022/04/17 12:47:31;;;;;;;0.40;0.40;;;16.60;1.00;;;;;;5013800;28;20172;-76
2022/04/17 12:50:07;;;;;;;0.40;0.40;;;16.90;1.00;;;;;;5013567;28;20547;-75
2022/04/17 12:52:34;;;;;;;0.30;0.30;;;17.10;1.00;;;;;;5014157;28;20215;-75
2022/04/17 12:55:09;;;;;;;0.50;0.50;;;17.50;1.00;;;;;;5014079;28;20235;-75
2022/04/17 12:57:35;;;;;;;0.40;0.40;;;17.50;1.00;;;;;;5013759;28;20176;-75
2022/04/17 13:00:13;;;;;;;0.40;0.40;;;17.60;1.00;;;;;;5012995;28;20310;-75
2022/04/17 13:02:38;;;;;;;0.40;0.40;;;17.60;1.00;;;;;;5013802;28;20227;-75
2022/04/17 13:05:04;;;;;;;0.40;0.40;;;18.00;1.00;;;;;;5013769;28;20598;-76
2022/04/17 13:07:35;;;;;;;0.40;0.40;;;18.00;1.00;;;;;;5013854;28;20207;-75
2022/04/17 13:10:03;;;;;;;0.40;0.40;;;17.80;1.00;;;;;;5012999;28;20184;-75
2022/04/17 13:12:30;;;;;;;0.50;0.50;;;17.70;1.00;;;;;;5013516;28;20271;-74
2022/04/17 13:14:57;;;;;;;0.50;0.50;;;17.10;1.00;;;;;;5013643;28;20238;-76
2022/04/17 13:17:23;;;;;;;0.30;0.30;;;16.50;1.00;;;;;;5013095;28;20263;-75
2022/04/17 13:19:48;;;;;;;0.37;0.37;;;17.20;1.00;;;;;;5013108;28;20215;-75
2022/04/17 13:22:14;;;;;;;0.30;0.30;;;17.40;1.00;;;;;;5013508;28;20176;-76
2022/04/17 13:24:42;;;;;;;0.40;0.40;;;17.80;1.00;;;;;;5013933;28;20177;-75
2022/04/17 13:27:08;;;;;;;0.50;0.50;;;17.80;1.00;;;;;;5012971;28;20669;-75